Latest Weather Observations for Hogan Island

IDV60801

Issued at 1:31 pm EDT Thursday 11 February 2016 (issued every 30 minutes, with the page automatically refreshed every 10 minutes)

About weather observations | Map of weather stations | Latest weather observations for VIC | Other Formats
Station Details ID: 200838 Name: HOGAN ISLAND Lat: -39.22 Lon: 146.98 Height: 116.0 m
Data from the previous 72 hours. | See also: Recent months at Hogan Island
Date/Time
EDT
Temp
°C
App
Temp
°C
Dew
Point
Rel
Hum
%
Delta-T
°C
Wind Press
QNH
hPa
Press
MSL
hPa
Rain
since 9 am
mm
Dir
 
Spd
km/h
Gust
km/h
Spd
kts
Gust
kts
11/01:30pm 22.1 19.2 15.0 64 4.2 WSW 24 28 13 15 1016.6 - 0.0
11/01:00pm 22.0 19.4 14.9 64 4.2 W 22 28 12 15 1016.6 - 0.0
11/12:30pm 22.1 19.4 15.5 66 4.0 WSW 24 28 13 15 1016.8 - 0.0
11/12:00pm 21.8 19.7 15.2 66 3.9 WSW 20 24 11 13 1017.1 1016.8 0.0
11/11:30am 21.7 18.8 15.1 66 3.9 SW 24 28 13 15 1017.2 - 0.0
11/11:00am 21.3 18.5 15.4 69 3.5 WSW 24 30 13 16 1017.1 - 0.0
11/10:30am 21.1 17.9 15.4 70 3.4 WSW 26 32 14 17 1017.2 - 0.0
11/10:00am 20.4 17.1 15.0 71 3.2 SW 26 30 14 16 1017.1 - 0.0
11/09:30am 19.9 16.7 15.3 75 2.7 SW 26 32 14 17 1017.0 - 0.0
11/09:00am 19.2 15.5 14.9 76 2.5 SW 28 33 15 18 1016.6 1016.3 0.0
11/08:30am 18.5 14.1 14.2 76 2.5 SW 30 35 16 19 1016.5 - 0.0
11/08:00am 17.9 12.9 14.0 78 2.2 SW 33 39 18 21 1016.4 - 0.0
11/07:30am 17.4 12.5 14.3 82 1.8 SW 33 39 18 21 1016.1 - 0.0
11/07:00am 17.2 11.5 14.1 82 1.8 SW 37 43 20 23 1015.6 - 0.0
11/06:30am 17.0 11.1 13.7 81 1.9 SW 37 44 20 24 1015.3 - 0.0
11/06:00am 16.9 12.0 14.2 84 1.5 SW 33 43 18 23 1014.9 1014.6 0.0
11/05:30am 16.8 11.0 13.9 83 1.7 WSW 37 41 20 22 1014.6 - 0.0
11/05:00am 16.9 10.7 13.8 82 1.8 WSW 39 44 21 24 1014.4 - 0.0
11/04:30am 16.8 11.0 13.9 83 1.7 WSW 37 41 20 22 1014.4 - 0.0
11/04:00am 16.8 11.4 13.9 83 1.7 WSW 35 39 19 21 1014.4 - 0.0
11/03:30am 16.8 11.3 13.7 82 1.8 WSW 35 41 19 22 1014.6 - 0.0
11/03:00am 16.9 11.4 13.6 81 1.9 WSW 35 39 19 21 1014.6 1014.3 0.0
11/02:30am 17.0 11.5 13.5 80 2.0 WSW 35 41 19 22 1014.8 - 0.0
11/02:00am 17.0 11.3 13.1 78 2.2 WSW 35 41 19 22 1015.0 - 0.0
11/01:30am 17.1 11.1 13.4 79 2.1 WSW 37 43 20 23 1015.1 - 0.0
11/01:00am 17.0 11.1 13.7 81 1.9 W 37 41 20 22 1015.1 - 0.0
11/12:30am 17.2 11.0 13.9 81 1.9 WSW 39 44 21 24 1015.1 - 0.0
11/12:00am 17.3 11.2 14.0 81 1.9 WSW 39 46 21 25 1015.1 1014.8 0.0
 
Date/Time
EDT
Temp
°C
App
Temp
°C
Dew
Point
Rel
Hum
%
Delta-T
°C
Wind Press
QNH
hPa
Press
MSL
hPa
Rain
since 9 am
mm
Dir
 
Spd
km/h
Gust
km/h
Spd
kts
Gust
kts
10/11:30pm 17.2 11.0 13.9 81 1.9 WSW 39 44 21 24 1015.0 - 0.0
10/11:00pm 17.4 10.1 13.5 78 2.2 WSW 44 52 24 28 1015.1 - 0.0
10/10:30pm 17.3 10.1 13.6 79 2.1 W 44 52 24 28 1015.0 - 0.0
10/10:00pm 17.3 9.3 13.6 79 2.1 WSW 48 54 26 29 1014.7 - 0.0
10/09:30pm 17.4 8.9 13.3 77 2.3 W 50 56 27 30 1014.5 - 0.0
10/09:00pm 17.3 9.2 13.2 77 2.3 WSW 48 54 26 29 1014.4 1014.1 0.0
10/08:30pm 17.4 9.8 13.5 78 2.2 WSW 46 52 25 28 1014.2 - 0.0
10/08:00pm 17.8 10.4 13.1 74 2.7 WSW 44 52 24 28 1014.1 - 0.0
10/07:30pm 18.3 10.6 13.4 73 2.8 WSW 46 54 25 29 1013.7 - 0.0
10/07:00pm 18.7 11.5 13.6 72 2.9 W 44 50 24 27 1013.7 - 0.0
10/06:30pm 19.2 12.1 13.4 69 3.3 WSW 43 50 23 27 1013.6 - 0.0
10/06:00pm 19.8 13.0 14.2 70 3.3 W 43 50 23 27 1013.5 1013.2 0.0
10/05:30pm 20.0 12.8 13.2 65 3.9 W 43 50 23 27 1013.5 - 0.0
10/05:00pm 20.1 13.1 13.6 66 3.7 W 43 48 23 26 1013.5 - 0.0
10/04:30pm 20.2 13.1 13.4 65 3.9 W 43 48 23 26 1013.4 - 0.0
10/04:00pm 21.3 14.7 13.7 62 4.4 WSW 41 46 22 25 1013.7 - 0.0
10/03:30pm 21.0 14.8 13.9 64 4.1 W 39 46 21 25 1013.8 - 0.0
10/03:00pm 20.2 13.5 13.4 65 3.9 WSW 41 46 22 25 1014.0 1013.7 0.0
10/02:30pm 20.9 13.8 13.4 62 4.3 WSW 43 48 23 26 1014.0 - 0.0
10/02:00pm 20.9 14.3 13.6 63 4.2 WSW 41 50 22 27 1014.3 - 0.0
10/01:30pm 20.7 14.4 13.4 63 4.2 W 39 46 21 25 1014.4 - 0.0
10/01:00pm 20.7 13.9 13.2 62 4.3 W 41 48 22 26 1014.6 - 0.0
10/12:30pm 21.1 14.5 13.8 63 4.2 W 41 46 22 25 1014.7 - 0.0
10/12:00pm 20.0 13.3 13.5 66 3.7 W 41 46 22 25 1014.9 1014.6 0.0
10/11:30am 19.2 11.8 13.2 68 3.4 W 44 50 24 27 1015.0 - 0.0
10/11:00am 18.7 11.7 13.8 73 2.8 W 43 48 23 26 1015.0 - 0.0
10/10:30am 20.1 14.8 14.2 69 3.4 W 35 43 19 23 1015.1 - 0.0
10/10:00am 19.3 13.9 13.9 71 3.1 W 35 39 19 21 1014.9 - 0.0
10/09:30am 19.1 14.7 14.1 73 2.9 W 30 35 16 19 1014.9 - 0.0
10/09:00am 18.4 13.6 13.9 75 2.6 W 32 35 17 19 1015.1 1014.8 0.0
10/08:30am 18.1 13.7 14.0 77 2.4 WSW 30 33 16 18 1014.8 - 0.0
10/08:00am 17.5 11.7 14.0 80 2.0 WSW 37 43 20 23 1014.6 - 0.0
10/07:30am 17.0 12.1 14.3 84 1.6 WSW 33 39 18 21 1014.3 - 0.0
10/07:00am 16.9 12.2 14.4 85 1.4 W 32 35 17 19 1014.2 - 0.0
10/06:30am 17.0 12.8 14.6 86 1.4 WSW 30 35 16 19 1014.1 - 0.0
10/06:00am 17.0 12.4 14.6 86 1.4 WSW 32 35 17 19 1014.0 1013.7 0.0
10/05:30am 17.3 13.2 14.9 86 1.4 W 30 35 16 19 1013.9 - 0.0
10/05:00am 17.3 13.8 15.6 90 1.0 WSW 28 32 15 17 1013.9 - 0.0
10/04:30am 17.0 13.4 15.3 90 1.0 WSW 28 32 15 17 1013.9 - 0.0
10/04:00am 16.9 13.7 15.4 91 0.9 WSW 26 30 14 16 1014.2 - 0.0
10/03:30am 17.1 14.8 15.8 92 0.8 WSW 22 26 12 14 1014.4 - 0.0
10/03:00am 16.9 14.9 15.6 92 0.8 W 20 22 11 12 1014.6 1014.3 0.0
10/02:30am 16.8 15.7 15.3 91 0.9 W 15 17 8 9 1014.9 - 0.0
10/02:00am 16.6 15.8 15.0 90 0.9 W 13 13 7 7 1015.2 - 0.0
10/01:30am 16.6 16.1 14.8 89 1.0 W 11 13 6 7 1015.4 - 0.0
10/01:00am 16.7 16.4 14.5 87 1.3 W 9 11 5 6 1015.8 - 0.0
10/12:30am 16.7 16.1 14.5 87 1.3 W 11 13 6 7 1016.3 - 0.0
10/12:00am 17.2 17.4 14.7 85 1.4 WNW 7 9 4 5 1016.5 1016.2 0.0
 
Date/Time
EDT
Temp
°C
App
Temp
°C
Dew
Point
Rel
Hum
%
Delta-T
°C
Wind Press
QNH
hPa
Press
MSL
hPa
Rain
since 9 am
mm
Dir
 
Spd
km/h
Gust
km/h
Spd
kts
Gust
kts
09/11:30pm 17.4 18.9 14.7 84 1.6 CALM 0 4 0 2 1016.8 - 0.0
09/11:00pm 17.3 17.4 14.4 83 1.7 NNW 7 11 4 6 1017.2 - 0.0
09/10:30pm 17.2 16.9 14.5 84 1.6 NNW 9 11 5 6 1017.5 - 0.0
09/10:00pm 16.9 16.5 14.2 84 1.5 NNW 9 11 5 6 1017.5 - 0.0
09/09:30pm 17.2 16.9 14.3 83 1.7 NNW 9 11 5 6 1017.6 - 0.0
09/09:00pm 17.2 16.9 14.3 83 1.7 NNW 9 11 5 6 1017.5 1017.2 0.0
09/08:30pm 17.3 16.6 14.2 82 1.8 N 11 11 6 6 1017.7 - 0.0
09/08:00pm 17.8 17.4 14.1 79 2.1 N 9 13 5 7 1017.7 - 0.0
09/07:30pm 18.7 18.0 14.4 76 2.5 NNE 11 15 6 8 1017.7 - 0.0
09/07:00pm 19.3 19.0 14.3 73 2.9 N 9 13 5 7 1017.8 - 0.0
09/06:30pm 20.0 19.3 14.4 70 3.3 NNE 11 15 6 8 1017.8 - 0.0
09/06:00pm 21.1 21.2 15.4 70 3.4 N 9 13 5 7 1017.9 1017.7 0.0
09/05:30pm 21.7 21.9 14.8 65 4.1 WNW 7 11 4 6 1018.1 - 0.0
09/05:00pm 21.8 21.6 14.7 64 4.2 N 9 13 5 7 1018.3 - 0.0
09/04:30pm 21.7 21.5 14.8 65 4.1 N 9 17 5 9 1018.7 - 0.0
09/04:00pm 21.1 20.0 14.3 65 4.0 NNE 13 17 7 9 1019.0 - 0.0
09/03:30pm 21.2 19.6 13.9 63 4.2 NE 15 22 8 12 1019.3 - 0.0
09/03:00pm 21.3 20.0 14.7 66 3.9 ENE 15 17 8 9 1019.5 1019.3 0.0
09/02:30pm 21.2 20.8 15.3 69 3.5 ENE 11 15 6 8 1019.9 - 0.0
09/02:00pm 20.6 19.6 14.5 68 3.6 ENE 13 19 7 10 1020.0 - 0.0
09/01:30pm 21.1 20.1 14.7 67 3.8 E 13 19 7 10 1020.2 - 0.0
09/01:00pm 21.3 20.3 15.6 70 3.4 E 15 20 8 11 1020.6 - 0.0
09/12:30pm 20.8 19.5 14.9 69 3.5 E 15 19 8 10 1021.0 - 0.0
09/12:00pm 21.1 21.3 14.7 67 3.8 WNW 7 13 4 7 1021.2 1020.9 0.0
09/11:30am 20.8 20.4 14.2 66 3.9 NNE 9 15 5 8 1021.4 - 0.0
09/11:00am 21.0 21.1 14.4 66 3.9 NNW 7 13 4 7 1021.5 - 0.0
09/10:30am 21.1 21.0 15.0 68 3.6 N 9 15 5 8 1021.4 - 0.0
09/10:00am 21.1 20.9 15.6 71 3.3 N 11 17 6 9 1021.4 - 0.0
09/09:30am 19.9 18.9 14.5 71 3.2 N 13 17 7 9 1021.4 - 0.0
09/09:00am 19.0 17.7 14.7 76 2.5 N 15 19 8 10 1021.3 1021.0 0.0
09/08:30am 17.7 14.8 14.0 79 2.1 WNW 22 28 12 15 1021.1 - 0.0
09/08:00am 17.1 13.7 13.8 81 1.9 WNW 24 28 13 15 1020.8 - 0.0
09/07:30am 16.7 12.7 14.0 84 1.5 W 28 33 15 18 1020.6 - 0.0
09/07:00am 16.5 11.7 14.0 85 1.4 W 32 37 17 20 1020.4 - 0.0
09/06:30am 16.3 11.4 13.6 84 1.5 W 32 35 17 19 1020.2 - 0.0
09/06:00am 16.4 13.1 14.1 86 1.3 WNW 24 30 13 16 1020.1 1019.8 0.0
09/05:30am 16.6 14.4 14.4 87 1.3 WNW 19 22 10 12 1020.1 - 0.0
09/05:00am 16.3 12.7 14.3 88 1.1 W 26 30 14 16 1019.7 - 0.0
09/04:30am 16.3 11.5 14.1 87 1.3 W 32 35 17 19 1019.6 - 0.0
09/04:00am 16.4 11.7 14.2 87 1.3 WSW 32 35 17 19 1019.6 - 0.0
09/03:30am 16.5 11.8 14.2 86 1.3 W 32 35 17 19 1019.9 - 0.0
09/03:00am 16.6 12.7 14.4 87 1.3 W 28 35 15 19 1020.2 1019.9 0.0
09/02:30am 16.6 12.3 14.4 87 1.3 W 30 35 16 19 1020.3 - 0.0
09/02:00am 16.7 11.8 14.2 85 1.4 W 33 39 18 21 1020.6 - 0.0
09/01:30am 16.9 10.6 14.5 86 1.4 W 41 44 22 24 1020.6 - 0.0
09/01:00am 16.8 11.1 14.3 85 1.4 WSW 37 41 20 22 1020.7 - 0.0
09/12:30am 16.9 11.3 14.4 85 1.4 WSW 37 43 20 23 1020.8 - 0.0
09/12:00am 17.0 11.0 14.5 85 1.4 WSW 39 46 21 25 1020.6 1020.3 0.0
 
Date/Time
EDT
Temp
°C
App
Temp
°C
Dew
Point
Rel
Hum
%
Delta-T
°C
Wind Press
QNH
hPa
Press
MSL
hPa
Rain
since 9 am
mm
Dir
 
Spd
km/h
Gust
km/h
Spd
kts
Gust
kts
08/11:30pm 17.0 10.0 14.3 84 1.6 WSW 44 52 24 28 1020.8 - 0.0
08/11:00pm 17.0 9.6 14.1 83 1.7 WSW 46 52 25 28 1021.0 - 0.0
08/10:30pm 17.2 9.9 14.5 84 1.6 WSW 46 52 25 28 1021.1 - 0.0
08/10:00pm 17.0 8.7 13.9 82 1.8 WSW 50 56 27 30 1020.9 - 0.0
08/09:30pm 17.3 7.9 14.0 81 1.9 WSW 56 65 30 35 1020.6 - 0.0
08/09:00pm 17.3 9.2 14.4 83 1.7 W 50 57 27 31 1020.3 1020.0 0.0
08/08:30pm 17.4 9.0 14.5 83 1.7 W 52 59 28 32 1020.2 - 0.0
08/08:00pm 18.0 9.7 14.9 82 1.8 W 52 57 28 31 1020.1 - 0.0
08/07:30pm 18.3 9.9 14.6 79 2.2 W 52 59 28 32 1019.6 - 0.0
08/07:00pm 18.7 10.2 14.4 76 2.5 W 52 59 28 32 1019.4 - 0.0
08/06:30pm 19.1 9.9 14.4 74 2.7 W 56 63 30 34 1019.1 - 0.0
08/06:00pm 19.6 10.7 14.2 71 3.1 W 54 63 29 34 1019.2 1019.0 0.0
08/05:30pm 19.9 10.6 14.3 70 3.3 W 56 65 30 35 1019.2 - 0.0
08/05:00pm 20.3 11.4 14.2 68 3.6 W 54 63 29 34 1019.5 - 0.0
08/04:30pm 20.5 12.0 14.2 67 3.7 W 52 61 28 33 1019.9 - 0.0
08/04:00pm 21.3 13.8 14.9 67 3.8 W 48 54 26 29 1020.0 - 0.0
08/03:30pm 21.2 13.5 14.4 65 4.0 W 48 57 26 31 1020.1 - 0.0
08/03:00pm 21.2 13.5 14.4 65 4.0 W 48 56 26 30 1020.2 1019.9 0.0
08/02:30pm 21.2 13.9 14.4 65 4.0 W 46 54 25 29 1020.3 - 0.0
08/02:00pm 21.5 14.4 14.9 66 3.9 WSW 46 54 25 29 1020.4 - 0.0

Other Formats:

Comma delimited format used in spreadsheet applications
http://www.bom.gov.au/fwo/IDV60801/IDV60801.94949.axf

JavaScript Object Notation format (JSON) in row-major order
http://www.bom.gov.au/fwo/IDV60801/IDV60801.94949.json